Time,TemperatureF,DewpointF,PressureIn,WindDirection,WindDirectionDegrees,WindSpeedMPH,WindSpeedGustMPH,Humidity,HourlyPrecipIn,Conditions,Clouds,dailyrainin,SoftwareType,DateUTC
2013-02-13 00:02:00,19.0,12.0,-100.00,West,260,6.0,7.0,75,0.00,,,0.00,,2013-02-13 00:02:00,
2013-02-13 00:11:00,18.0,12.0,-100.00,West,270,4.0,6.0,75,0.00,,,0.00,,2013-02-13 00:11:00,
2013-02-13 00:21:00,18.0,12.0,-100.00,West,265,6.0,7.0,76,0.00,,,0.00,,2013-02-13 00:21:00,
2013-02-13 00:32:00,19.0,14.0,-100.00,West,280,4.0,7.0,77,0.00,,,0.00,,2013-02-13 00:32:00,
2013-02-13 00:42:00,19.0,14.0,-100.00,NW,305,6.0,7.0,78,0.00,,,0.00,,2013-02-13 00:42:00,
2013-02-13 00:51:00,20.0,14.0,-100.00,WNW,300,6.0,9.0,79,0.00,,,0.00,,2013-02-13 00:51:00,
2013-02-13 01:01:00,19.0,14.0,-100.00,WNW,285,6.0,7.0,80,0.00,,,0.00,,2013-02-13 01:01:00,
2013-02-13 01:11:00,19.0,14.0,-100.00,West,260,4.0,7.0,80,0.00,,,0.00,,2013-02-13 01:11:00,
2013-02-13 01:21:00,16.0,10.0,-100.00,WSW,240,4.0,5.0,81,0.00,,,0.00,,2013-02-13 01:21:00,
2013-02-13 01:31:00,17.0,12.0,-100.00,SW,230,3.0,4.0,82,0.00,,,0.00,,2013-02-13 01:31:00,
2013-02-13 01:42:00,17.0,14.0,-100.00,WNW,300,4.0,5.0,83,0.00,,,0.00,,2013-02-13 01:42:00,
2013-02-13 01:51:00,18.0,14.0,-100.00,WNW,290,4.0,6.0,84,0.00,,,0.00,,2013-02-13 01:51:00,
2013-02-13 02:01:00,18.0,14.0,-100.00,West,280,4.0,5.0,84,0.00,,,0.00,,2013-02-13 02:01:00,
2013-02-13 02:11:00,18.0,14.0,-100.00,West,275,6.0,7.0,85,0.00,,,0.00,,2013-02-13 02:11:00,
2013-02-13 02:21:00,18.0,14.0,-100.00,West,265,4.0,7.0,85,0.00,,,0.00,,2013-02-13 02:21:00,
2013-02-13 02:31:00,17.0,14.0,-100.00,West,260,3.0,5.0,86,0.00,,,0.00,,2013-02-13 02:31:00,
2013-02-13 02:41:00,17.0,14.0,-100.00,West,270,6.0,7.0,86,0.00,,,0.00,,2013-02-13 02:41:00,
2013-02-13 02:52:00,18.0,16.0,-100.00,WNW,285,6.0,7.0,87,0.00,,,0.00,,2013-02-13 02:52:00,
2013-02-13 03:01:00,18.0,16.0,-100.00,West,265,5.0,8.0,87,0.00,,,0.00,,2013-02-13 03:01:00,
2013-02-13 03:11:00,18.0,16.0,-100.00,West,265,6.0,9.0,87,0.00,,,0.00,,2013-02-13 03:11:00,
2013-02-13 03:21:00,18.0,16.0,-100.00,West,280,4.0,8.0,87,0.00,,,0.00,,2013-02-13 03:21:00,
2013-02-13 03:32:00,19.0,16.0,-100.00,West,275,7.0,9.0,88,0.00,,,0.00,,2013-02-13 03:32:00,
2013-02-13 03:41:00,19.0,16.0,-100.00,West,270,7.0,9.0,88,0.00,,,0.00,,2013-02-13 03:41:00,
2013-02-13 03:51:00,19.0,16.0,-100.00,West,265,7.0,9.0,88,0.00,,,0.00,,2013-02-13 03:51:00,
2013-02-13 04:01:00,19.0,16.0,-100.00,West,270,9.0,11.0,88,0.00,,,0.00,,2013-02-13 04:01:00,
2013-02-13 04:11:00,19.0,16.0,-100.00,West,270,8.0,10.0,89,0.00,,,0.00,,2013-02-13 04:11:00,
2013-02-13 04:21:00,19.0,16.0,-100.00,West,270,9.0,11.0,89,0.00,,,0.00,,2013-02-13 04:21:00,
2013-02-13 04:31:00,18.0,16.0,-100.00,West,270,7.0,9.0,89,0.00,,,0.00,,2013-02-13 04:31:00,
2013-02-13 04:41:00,18.0,16.0,-100.00,West,260,6.0,9.0,89,0.00,,,0.00,,2013-02-13 04:41:00,
2013-02-13 04:51:00,18.0,16.0,-100.00,West,265,7.0,9.0,90,0.00,,,0.00,,2013-02-13 04:51:00,
2013-02-13 05:01:00,18.0,16.0,-100.00,West,265,7.0,10.0,90,0.00,,,0.00,,2013-02-13 05:01:00,
2013-02-13 05:11:00,18.0,16.0,-100.00,West,270,9.0,11.0,90,0.00,,,0.00,,2013-02-13 05:11:00,
2013-02-13 05:22:00,18.0,16.0,-100.00,West,270,9.0,12.0,91,0.00,,,0.00,,2013-02-13 05:22:00,
2013-02-13 05:31:00,17.0,16.0,-100.00,West,270,7.0,11.0,91,0.00,,,0.00,,2013-02-13 05:31:00,
2013-02-13 05:41:00,17.0,14.0,-100.00,West,260,9.0,11.0,91,0.00,,,0.00,,2013-02-13 05:41:00,
2013-02-13 05:52:00,17.0,16.0,-100.00,West,270,9.0,12.0,91,0.00,,,0.00,,2013-02-13 05:52:00,
2013-02-13 06:02:00,16.0,14.0,-100.00,West,270,7.0,11.0,91,0.00,,,0.00,,2013-02-13 06:02:00,
2013-02-13 06:11:00,16.0,14.0,-100.00,West,280,4.0,6.0,91,0.00,,,0.00,,2013-02-13 06:11:00,
2013-02-13 06:21:00,16.0,14.0,-100.00,West,280,6.0,9.0,92,0.00,,,0.00,,2013-02-13 06:21:00,
2013-02-13 06:32:00,16.0,14.0,-100.00,West,280,6.0,7.0,92,0.00,,,0.00,,2013-02-13 06:32:00,
2013-02-13 06:42:00,16.0,14.0,-100.00,West,270,6.0,7.0,92,0.00,,,0.00,,2013-02-13 06:42:00,
2013-02-13 06:51:00,15.0,14.0,-100.00,West,270,5.0,7.0,92,0.00,,,0.00,,2013-02-13 06:51:00,
2013-02-13 07:02:00,16.0,14.0,-100.00,West,275,7.0,8.0,93,0.00,,,0.00,,2013-02-13 07:02:00,
2013-02-13 07:11:00,16.0,14.0,-100.00,West,275,6.0,8.0,93,0.00,,,0.00,,2013-02-13 07:11:00,
2013-02-13 07:21:00,15.0,14.0,-100.00,West,280,6.0,7.0,94,0.00,,,0.00,,2013-02-13 07:21:00,
2013-02-13 07:31:00,16.0,14.0,-100.00,West,275,6.0,7.0,94,0.00,,,0.00,,2013-02-13 07:31:00,
2013-02-13 07:41:00,16.0,14.0,-100.00,West,280,6.0,7.0,94,0.00,,,0.00,,2013-02-13 07:41:00,
2013-02-13 07:51:00,16.0,16.0,-100.00,West,275,5.0,8.0,95,0.00,,,0.00,,2013-02-13 07:51:00,
2013-02-13 08:01:00,16.0,16.0,-100.00,West,280,6.0,7.0,95,0.00,,,0.00,,2013-02-13 08:01:00,
2013-02-13 08:11:00,17.0,16.0,-100.00,West,280,7.0,9.0,95,0.00,,,0.00,,2013-02-13 08:11:00,
2013-02-13 08:21:00,17.0,16.0,-100.00,West,280,6.0,9.0,95,0.00,,,0.00,,2013-02-13 08:21:00,
2013-02-13 08:32:00,17.0,16.0,-100.00,West,280,6.0,11.0,95,0.00,,,0.00,,2013-02-13 08:32:00,
2013-02-13 08:43:00,17.0,16.0,-100.00,West,270,4.0,7.0,95,0.00,,,0.00,,2013-02-13 08:43:00,
2013-02-13 08:52:00,16.0,14.0,-100.00,West,280,4.0,6.0,95,0.00,,,0.00,,2013-02-13 08:52:00,
2013-02-13 09:01:00,16.0,14.0,-100.00,West,260,4.0,6.0,95,0.00,,,0.00,,2013-02-13 09:01:00,
2013-02-13 09:11:00,16.0,14.0,-100.00,West,265,3.0,7.0,95,0.00,,,0.00,,2013-02-13 09:11:00,
2013-02-13 09:21:00,16.0,16.0,-100.00,West,275,6.0,7.0,96,0.00,,,0.00,,2013-02-13 09:21:00,
2013-02-13 09:31:00,17.0,16.0,-100.00,West,280,6.0,7.0,96,0.00,,,0.00,,2013-02-13 09:31:00,
2013-02-13 09:41:00,17.0,16.0,-100.00,WNW,285,7.0,10.0,96,0.00,,,0.00,,2013-02-13 09:41:00,
2013-02-13 09:51:00,17.0,16.0,-100.00,West,280,6.0,9.0,96,0.00,,,0.00,,2013-02-13 09:51:00,
2013-02-13 10:01:00,18.0,16.0,-100.00,West,280,4.0,7.0,96,0.00,,,0.00,,2013-02-13 10:01:00,
2013-02-13 10:11:00,18.0,16.0,-100.00,West,265,1.0,4.0,96,0.00,,,0.00,,2013-02-13 10:11:00,
2013-02-13 10:21:00,18.0,18.0,-100.00,West,280,2.0,3.0,96,0.00,,,0.00,,2013-02-13 10:21:00,
2013-02-13 10:32:00,19.0,18.0,-100.00,WNW,290,1.0,4.0,96,0.00,,,0.00,,2013-02-13 10:32:00,
2013-02-13 10:41:00,19.0,18.0,-100.00,NNW,330,5.0,6.0,96,0.00,,,0.00,,2013-02-13 10:41:00,
2013-02-13 10:51:00,20.0,19.0,-100.00,NW,310,3.0,7.0,96,0.00,,,0.00,,2013-02-13 10:51:00,
2013-02-13 11:01:00,20.0,19.0,-100.00,WNW,285,3.0,4.0,96,0.00,,,0.00,,2013-02-13 11:01:00,
2013-02-13 11:11:00,20.0,19.0,-100.00,West,275,4.0,4.0,96,0.00,,,0.00,,2013-02-13 11:11:00,
2013-02-13 11:22:00,20.0,19.0,-100.00,West,260,2.0,6.0,96,0.00,,,0.00,,2013-02-13 11:22:00,
2013-02-13 11:32:00,20.0,19.0,-100.00,West,265,5.0,7.0,96,0.00,,,0.00,,2013-02-13 11:32:00,
2013-02-13 11:42:00,20.0,19.0,-100.00,WSW,255,3.0,6.0,96,0.00,,,0.00,,2013-02-13 11:42:00,
2013-02-13 11:52:00,21.0,19.0,-100.00,West,265,3.0,4.0,96,0.00,,,0.00,,2013-02-13 11:52:00,
2013-02-13 12:02:00,21.0,19.0,-100.00,West,260,2.0,5.0,96,0.00,,,0.00,,2013-02-13 12:02:00,
2013-02-13 12:11:00,22.0,21.0,-100.00,WNW,295,2.0,2.0,96,0.00,,,0.00,,2013-02-13 12:11:00,
2013-02-13 12:21:00,23.0,21.0,-100.00,WNW,285,2.0,6.0,96,0.00,,,0.00,,2013-02-13 12:21:00,
2013-02-13 12:32:00,22.0,21.0,-100.00,WNW,290,1.0,4.0,96,0.00,,,0.00,,2013-02-13 12:32:00,
2013-02-13 12:42:00,22.0,21.0,-100.00,SSW,205,0.0,2.0,96,0.00,,,0.00,,2013-02-13 12:42:00,
2013-02-13 12:52:00,22.0,21.0,-100.00,West,260,6.0,6.0,96,0.00,,,0.00,,2013-02-13 12:52:00,
2013-02-13 13:02:00,23.0,21.0,-100.00,NW,305,4.0,7.0,95,0.00,,,0.00,,2013-02-13 13:02:00,
2013-02-13 13:11:00,23.0,21.0,-100.00,WNW,290,4.0,7.0,95,0.00,,,0.00,,2013-02-13 13:11:00,
2013-02-13 13:21:00,23.0,21.0,-100.00,North,10,1.0,4.0,95,0.00,,,0.00,,2013-02-13 13:21:00,
2013-02-13 13:32:00,23.0,21.0,-100.00,WNW,300,2.0,3.0,95,0.00,,,0.00,,2013-02-13 13:32:00,
2013-02-13 13:41:00,22.0,21.0,-100.00,WNW,285,3.0,4.0,95,0.00,,,0.00,,2013-02-13 13:41:00,
2013-02-13 13:51:00,21.0,19.0,-100.00,West,275,3.0,4.0,95,0.00,,,0.00,,2013-02-13 13:51:00,
2013-02-13 14:01:00,21.0,19.0,-100.00,West,280,3.0,6.0,95,0.00,,,0.00,,2013-02-13 14:01:00,
2013-02-13 14:11:00,22.0,21.0,-100.00,NW,305,3.0,6.0,95,0.00,,,0.00,,2013-02-13 14:11:00,
2013-02-13 14:21:00,23.0,21.0,-100.00,WNW,285,2.0,3.0,94,0.00,,,0.00,,2013-02-13 14:21:00,
2013-02-13 14:31:00,24.0,23.0,-100.00,WSW,250,1.0,3.0,94,0.00,,,0.00,,2013-02-13 14:31:00,
2013-02-13 14:41:00,22.0,21.0,-100.00,WSW,245,1.0,3.0,93,0.00,,,0.00,,2013-02-13 14:41:00,
2013-02-13 14:52:00,24.0,21.0,-100.00,WSW,255,2.0,4.0,93,0.00,,,0.00,,2013-02-13 14:52:00,
2013-02-13 15:01:00,24.0,23.0,-100.00,West,260,5.0,6.0,93,0.00,,,0.00,,2013-02-13 15:01:00,
2013-02-13 15:11:00,25.0,23.0,-100.00,WSW,255,4.0,6.0,92,0.00,,,0.00,,2013-02-13 15:11:00,
2013-02-13 15:21:00,28.0,27.0,-100.00,SW,225,0.0,3.0,91,0.00,,,0.00,,2013-02-13 15:21:00,
2013-02-13 15:32:00,28.0,25.0,-100.00,West,280,3.0,3.0,88,0.00,,,0.00,,2013-02-13 15:32:00,
2013-02-13 15:42:00,28.0,25.0,-100.00,West,275,5.0,6.0,85,0.00,,,0.00,,2013-02-13 15:42:00,
2013-02-13 15:51:00,30.0,25.0,-100.00,West,260,3.0,6.0,82,0.00,,,0.00,,2013-02-13 15:51:00,
2013-02-13 16:01:00,30.0,25.0,-100.00,West,275,7.0,8.0,77,0.00,,,0.00,,2013-02-13 16:01:00,
2013-02-13 16:11:00,31.0,25.0,-100.00,WSW,250,4.0,7.0,76,0.00,,,0.00,,2013-02-13 16:11:00,
2013-02-13 16:21:00,33.0,25.0,-100.00,WSW,255,7.0,10.0,72,0.00,,,0.00,,2013-02-13 16:21:00,
2013-02-13 16:31:00,34.0,25.0,-100.00,WSW,245,7.0,9.0,70,0.00,,,0.00,,2013-02-13 16:31:00,
2013-02-13 16:42:00,34.0,25.0,-100.00,West,260,9.0,11.0,67,0.00,,,0.00,,2013-02-13 16:42:00,
2013-02-13 16:51:00,33.0,23.0,-100.00,West,260,9.0,12.0,67,0.00,,,0.00,,2013-02-13 16:51:00,
2013-02-13 17:01:00,33.0,23.0,-100.00,West,265,9.0,11.0,67,0.00,,,0.00,,2013-02-13 17:01:00,
2013-02-13 17:11:00,33.0,23.0,-100.00,West,260,9.0,11.0,67,0.00,,,0.00,,2013-02-13 17:11:00,
2013-02-13 17:21:00,33.0,25.0,-100.00,WSW,255,6.0,9.0,68,0.00,,,0.00,,2013-02-13 17:21:00,
2013-02-13 17:31:00,35.0,25.0,-100.00,West,270,6.0,8.0,67,0.00,,,0.00,,2013-02-13 17:31:00,
2013-02-13 17:41:00,34.0,25.0,-100.00,WSW,255,8.0,10.0,67,0.00,,,0.00,,2013-02-13 17:41:00,
2013-02-13 17:52:00,35.0,25.0,-100.00,WSW,255,7.0,9.0,67,0.00,,,0.00,,2013-02-13 17:52:00,
2013-02-13 18:01:00,36.0,27.0,-100.00,WSW,250,6.0,9.0,66,0.00,,,0.00,,2013-02-13 18:01:00,
2013-02-13 18:11:00,36.0,27.0,-100.00,West,260,6.0,8.0,65,0.00,,,0.00,,2013-02-13 18:11:00,
2013-02-13 18:22:00,34.0,25.0,-100.00,WNW,290,8.0,10.0,67,0.00,,,0.00,,2013-02-13 18:22:00,
2013-02-13 18:32:00,33.0,25.0,-100.00,West,275,9.0,11.0,70,0.00,,,0.00,,2013-02-13 18:32:00,
2013-02-13 18:41:00,33.0,25.0,-100.00,West,280,9.0,11.0,72,0.00,,,0.00,,2013-02-13 18:41:00,
2013-02-13 18:52:00,33.0,25.0,-100.00,West,280,9.0,11.0,73,0.00,,,0.00,,2013-02-13 18:52:00,
2013-02-13 19:01:00,33.0,25.0,-100.00,West,270,9.0,11.0,73,0.00,,,0.00,,2013-02-13 19:01:00,
2013-02-13 19:11:00,33.0,27.0,-100.00,West,275,7.0,10.0,73,0.00,,,0.00,,2013-02-13 19:11:00,
2013-02-13 19:21:00,33.0,25.0,-100.00,WNW,285,9.0,11.0,73,0.00,,,0.00,,2013-02-13 19:21:00,
2013-02-13 19:31:00,33.0,25.0,-100.00,West,280,11.0,11.0,73,0.00,,,0.00,,2013-02-13 19:31:00,
2013-02-13 19:41:00,33.0,25.0,-100.00,WNW,285,7.0,11.0,73,0.00,,,0.00,,2013-02-13 19:41:00,
2013-02-13 19:51:00,33.0,25.0,-100.00,WNW,290,7.0,10.0,74,0.00,,,0.00,,2013-02-13 19:51:00,
2013-02-13 20:02:00,33.0,27.0,-100.00,West,280,6.0,9.0,74,0.00,,,0.00,,2013-02-13 20:02:00,
2013-02-13 20:11:00,33.0,27.0,-100.00,West,280,7.0,9.0,74,0.00,,,0.00,,2013-02-13 20:11:00,
2013-02-13 20:21:00,33.0,27.0,-100.00,WNW,290,6.0,9.0,74,0.00,,,0.00,,2013-02-13 20:21:00,
2013-02-13 20:31:00,33.0,27.0,-100.00,West,280,6.0,7.0,74,0.00,,,0.00,,2013-02-13 20:31:00,
2013-02-13 20:41:00,33.0,27.0,-100.00,West,280,6.0,8.0,75,0.00,,,0.00,,2013-02-13 20:41:00,
2013-02-13 20:52:00,34.0,27.0,-100.00,West,270,6.0,7.0,76,0.00,,,0.00,,2013-02-13 20:52:00,
2013-02-13 21:01:00,35.0,28.0,-100.00,WSW,250,3.0,6.0,76,0.00,,,0.00,,2013-02-13 21:01:00,
2013-02-13 21:11:00,35.0,28.0,-100.00,West,265,2.0,5.0,76,0.00,,,0.00,,2013-02-13 21:11:00,
2013-02-13 21:21:00,35.0,28.0,-100.00,WSW,255,2.0,4.0,76,0.00,,,0.00,,2013-02-13 21:21:00,
2013-02-13 21:31:00,35.0,28.0,-100.00,South,180,1.0,3.0,77,0.00,,,0.00,,2013-02-13 21:31:00,
2013-02-13 21:42:00,34.0,28.0,-100.00,SSW,200,1.0,2.0,78,0.00,,,0.00,,2013-02-13 21:42:00,
2013-02-13 21:52:00,34.0,28.0,-100.00,SSE,165,2.0,2.0,79,0.00,,,0.00,,2013-02-13 21:52:00,
2013-02-13 22:02:00,33.0,28.0,-100.00,South,180,1.0,2.0,81,0.00,,,0.00,,2013-02-13 22:02:00,
2013-02-13 22:11:00,33.0,28.0,-100.00,SSE,155,2.0,3.0,83,0.00,,,0.00,,2013-02-13 22:11:00,
2013-02-13 22:21:00,33.0,28.0,-100.00,South,175,0.0,3.0,84,0.00,,,0.00,,2013-02-13 22:21:00,
2013-02-13 22:31:00,33.0,28.0,-100.00,East,80,2.0,3.0,85,0.00,,,0.00,,2013-02-13 22:31:00,
2013-02-13 22:42:00,33.0,28.0,-100.00,East,95,2.0,4.0,87,0.00,,,0.00,,2013-02-13 22:42:00,
2013-02-13 22:51:00,33.0,30.0,-100.00,ESE,115,4.0,4.0,88,0.00,,,0.00,,2013-02-13 22:51:00,
2013-02-13 23:01:00,32.0,30.0,-100.00,ESE,115,2.0,5.0,89,0.00,,,0.00,,2013-02-13 23:01:00,
2013-02-13 23:11:00,32.0,30.0,-100.00,ESE,110,2.0,4.0,90,0.00,,,0.00,,2013-02-13 23:11:00,
2013-02-13 23:21:00,32.0,30.0,-100.00,ESE,115,3.0,4.0,91,0.00,,,0.00,,2013-02-13 23:21:00,
2013-02-13 23:32:00,32.0,30.0,-100.00,ESE,105,2.0,4.0,91,0.00,,,0.00,,2013-02-13 23:32:00,
2013-02-13 23:41:00,32.0,30.0,-100.00,SE,135,3.0,6.0,92,0.00,,,0.01,,2013-02-13 23:41:00,
2013-02-13 23:52:00,31.0,30.0,-100.00,South,170,4.0,5.0,93,0.00,,,0.01,,2013-02-13 23:52:00,